Time;durP1;ratioP1;P1;durP2;ratioP2;P2;SDS_P1;SDS_P2;PMS_P1;PMS_P2;Temp;Humidity;BMP_temperature;BMP_pressure;BME280_temperature;BME280_humidity;BME280_pressure;Samples;Min_cycle;Max_cycle;Signal;HPM_P1;HPM_P2
2022/10/27 00:02:01;;;;;;;;;;;;;;;;;;5046661;22;20021;-37
2022/10/27 00:04:26;;;;;;;;;;;;;;;;;;5027394;28;19936;-37
2022/10/27 00:06:51;;;;;;;;;;;;;;;;;;5027915;28;19967;-38
2022/10/27 00:09:16;;;;;;;;;;;;;;;;;;5028462;28;19910;-38
2022/10/27 00:11:41;;;;;;;;;;;;;;;;;;5011476;28;19913;-38
2022/10/27 00:14:07;;;;;;;;;;;;;;;;;;5004930;28;19929;-37
2022/10/27 00:16:32;;;;;;;;;;;;;;;;;;5003073;28;20292;-38
2022/10/27 00:18:57;;;;;;;;;;;;;;;;;;5004221;28;19914;-37
2022/10/27 00:21:23;;;;;;;;;;;;;;;;;;5006158;28;20366;-37
2022/10/27 00:23:49;;;;;;;;;;;;;;;;;;5006046;28;19917;-37
2022/10/27 00:26:14;;;;;;;;;;;;;;;;;;5005340;28;19921;-37
2022/10/27 00:28:39;;;;;;;;;;;;;;;;;;4999746;28;20239;-37
2022/10/27 00:31:04;;;;;;;;;;;;;;;;;;5001992;28;19919;-37
2022/10/27 00:33:29;;;;;;;;;;;;;;;;;;5002592;28;20028;-37
2022/10/27 00:35:55;;;;;;;;;;;;;;;;;;5000981;28;20264;-37
2022/10/27 00:38:20;;;;;;;;;;;;;;;;;;5004083;28;20449;-37
2022/10/27 00:40:45;;;;;;;;;;;;;;;;;;5000174;28;20394;-37
2022/10/27 00:43:10;;;;;;;;;;;;;;;;;;5003671;28;19964;-37
2022/10/27 00:45:35;;;;;;;;;;;;;;;;;;5003860;28;19936;-38
2022/10/27 00:48:00;;;;;;;;;;;;;;;;;;5004794;28;20398;-37
2022/10/27 00:50:26;;;;;;;;;;;;;;;;;;5005160;28;19920;-37
2022/10/27 00:52:51;;;;;;;;;;;;;;;;;;5003968;28;20210;-37
2022/10/27 00:55:16;;;;;;;;;;;;;;;;;;5002421;28;19943;-37
2022/10/27 00:57:41;;;;;;;;;;;;;;;;;;5003283;28;20303;-37
2022/10/27 01:00:07;;;;;;;;;;;;;;;;;;5000817;28;20425;-37
2022/10/27 01:02:32;;;;;;;;;;;;;;;;;;5005931;28;19940;-37
2022/10/27 01:04:57;;;;;;;;;;;;;;;;;;5004786;28;19959;-38
2022/10/27 01:07:22;;;;;;;;;;;;;;;;;;5002992;28;20168;-38
2022/10/27 01:09:47;;;;;;;;;;;;;;;;;;5002614;28;20445;-37
2022/10/27 01:12:12;;;;;;;;;;;;;;;;;;5002854;28;20007;-37
2022/10/27 01:14:38;;;;;;;;;;;;;;;;;;4998536;28;19921;-37
2022/10/27 01:17:03;;;;;;;;;;;;;;;;;;5003186;28;19910;-37
2022/10/27 01:19:28;;;;;;;;;;;;;;;;;;5002574;28;19924;-37
2022/10/27 01:21:53;;;;;;;;;;;;;;;;;;5003057;28;19928;-37
2022/10/27 01:24:18;;;;;;;;;;;;;;;;;;5000681;28;20309;-37
2022/10/27 01:26:44;;;;;;;;;;;;;;;;;;5004065;28;19909;-37
2022/10/27 01:29:09;;;;;;;;;;;;;;;;;;5002443;28;20306;-37
2022/10/27 01:31:34;;;;;;;;;;;;;;;;;;5002362;28;19972;-37
2022/10/27 01:33:59;;;;;;;;;;;;;;;;;;5001966;28;19925;-37
2022/10/27 01:36:24;;;;;;;;;;;;;;;;;;5001989;28;20401;-37
2022/10/27 01:38:49;;;;;;;;;;;;;;;;;;5005110;28;20435;-37
2022/10/27 01:41:14;;;;;;;;;;;;;;;;;;5004776;28;19924;-37
2022/10/27 01:43:40;;;;;;;;;;;;;;;;;;5002931;28;20009;-37
2022/10/27 01:46:05;;;;;;;;;;;;;;;;;;5000943;28;19925;-38
2022/10/27 01:48:30;;;;;;;;;;;;;;;;;;5000192;28;19917;-37
2022/10/27 01:50:55;;;;;;;;;;;;;;;;;;5007396;28;19935;-37
2022/10/27 01:53:20;;;;;;;;;;;;;;;;;;5005108;28;19964;-37
2022/10/27 01:55:45;;;;;;;;;;;;;;;;;;5011274;28;20271;-37
2022/10/27 01:58:10;;;;;;;;;;;;;;;;;;5009967;28;19924;-37
2022/10/27 02:00:36;;;;;;;;;;;;;;;;;;5009484;28;20041;-37
2022/10/27 02:03:01;;;;;;;;;;;;;;;;;;5008699;28;19914;-38
2022/10/27 02:05:26;;;;;;;;;;;;;;;;;;5007093;28;20012;-37
2022/10/27 02:07:51;;;;;;;;;;;;;;;;;;5008752;28;20057;-37
2022/10/27 02:10:17;;;;;;;;;;;;;;;;;;5004825;28;19914;-38
2022/10/27 02:12:42;;;;;;;;;;;;;;;;;;5008647;28;20013;-37
2022/10/27 02:15:07;;;;;;;;;;;;;;;;;;5009263;28;19918;-38
2022/10/27 02:17:32;;;;;;;;;;;;;;;;;;5009773;28;20163;-37
2022/10/27 02:19:57;;;;;;;;;;;;;;;;;;5010263;28;19964;-37
2022/10/27 02:22:22;;;;;;;;;;;;;;;;;;5007207;28;19924;-37
2022/10/27 02:24:48;;;;;;;;;;;;;;;;;;5010838;28;19919;-38
2022/10/27 02:27:13;;;;;;;;;;;;;;;;;;5006715;28;20384;-37
2022/10/27 02:29:38;;;;;;;;;;;;;;;;;;5005925;28;19913;-37
2022/10/27 02:32:03;;;;;;;;;;;;;;;;;;5009759;28;20466;-37
2022/10/27 02:34:29;;;;;;;;;;;;;;;;;;5010931;28;19917;-37
2022/10/27 02:36:54;;;;;;;;;;;;;;;;;;5004451;28;19924;-37
2022/10/27 02:39:19;;;;;;;;;;;;;;;;;;5010918;28;20025;-37
2022/10/27 02:41:44;;;;;;;;;;;;;;;;;;5006385;28;19921;-37
2022/10/27 02:44:09;;;;;;;;;;;;;;;;;;5009602;28;19913;-37
2022/10/27 02:46:34;;;;;;;;;;;;;;;;;;5007342;28;20374;-37
2022/10/27 02:48:59;;;;;;;;;;;;;;;;;;5008061;28;19920;-37
2022/10/27 02:51:25;;;;;;;;;;;;;;;;;;5010874;28;20379;-37
2022/10/27 02:53:50;;;;;;;;;;;;;;;;;;5008784;28;19917;-37
2022/10/27 02:56:15;;;;;;;;;;;;;;;;;;5006913;28;19953;-37
2022/10/27 02:58:40;;;;;;;;;;;;;;;;;;5009438;28;20264;-37
2022/10/27 03:01:05;;;;;;;;;;;;;;;;;;5004249;28;19922;-37
2022/10/27 03:03:30;;;;;;;;;;;;;;;;;;5006003;28;20264;-37
2022/10/27 03:05:55;;;;;;;;;;;;;;;;;;5000215;28;19917;-37
2022/10/27 03:08:21;;;;;;;;;;;;;;;;;;4998712;28;19938;-37
2022/10/27 03:10:46;;;;;;;;;;;;;;;;;;5002079;28;20043;-37
2022/10/27 03:13:11;;;;;;;;;;;;;;;;;;5005483;28;20157;-37
2022/10/27 03:15:36;;;;;;;;;;;;;;;;;;5003201;28;20031;-37
2022/10/27 03:18:01;;;;;;;;;;;;;;;;;;5006944;28;19917;-37
2022/10/27 03:20:26;;;;;;;;;;;;;;;;;;5004335;28;19917;-37
2022/10/27 03:22:52;;;;;;;;;;;;;;;;;;5005609;28;19921;-38
2022/10/27 03:25:17;;;;;;;;;;;;;;;;;;5001837;28;19913;-37
2022/10/27 03:27:42;;;;;;;;;;;;;;;;;;5004019;28;19918;-38
2022/10/27 03:30:07;;;;;;;;;;;;;;;;;;5006156;28;19918;-38
2022/10/27 03:32:32;;;;;;;;;;;;;;;;;;5006397;28;20260;-37
2022/10/27 03:34:57;;;;;;;;;;;;;;;;;;5005427;28;19917;-37
2022/10/27 03:37:22;;;;;;;;;;;;;;;;;;5007829;28;19913;-37
2022/10/27 03:39:48;;;;;;;;;;;;;;;;;;5003438;28;19959;-38
2022/10/27 03:42:13;;;;;;;;;;;;;;;;;;5006753;28;19913;-37
2022/10/27 03:44:38;;;;;;;;;;;;;;;;;;5003859;28;20393;-37
2022/10/27 03:47:03;;;;;;;;;;;;;;;;;;5002985;28;19928;-37
2022/10/27 03:49:28;;;;;;;;;;;;;;;;;;5004318;28;20005;-37
2022/10/27 03:51:53;;;;;;;;;;;;;;;;;;5006330;28;19918;-38
2022/10/27 03:54:18;;;;;;;;;;;;;;;;;;5007654;28;19918;-37
2022/10/27 03:56:44;;;;;;;;;;;;;;;;;;5006754;28;19917;-38
2022/10/27 03:59:09;;;;;;;;;;;;;;;;;;5006661;28;20011;-38
2022/10/27 04:01:34;;;;;;;;;;;;;;;;;;5005684;28;19925;-37
2022/10/27 04:03:59;;;;;;;;;;;;;;;;;;5007416;28;19914;-37
2022/10/27 04:06:24;;;;;;;;;;;;;;;;;;5005038;28;19941;-37
2022/10/27 04:08:49;;;;;;;;;;;;;;;;;;5006386;28;19914;-37
2022/10/27 04:11:14;;;;;;;;;;;;;;;;;;5006835;28;20429;-37
2022/10/27 04:13:40;;;;;;;;;;;;;;;;;;5006729;28;19948;-37
2022/10/27 04:16:05;;;;;;;;;;;;;;;;;;4999667;28;19948;-38
2022/10/27 04:18:30;;;;;;;;;;;;;;;;;;5005265;28;19996;-37
2022/10/27 04:20:55;;;;;;;;;;;;;;;;;;5003980;28;20773;-37
2022/10/27 04:23:20;;;;;;;;;;;;;;;;;;5005364;28;19913;-37
2022/10/27 04:25:45;;;;;;;;;;;;;;;;;;5005858;28;19936;-37
2022/10/27 04:28:11;;;;;;;;;;;;;;;;;;5002532;28;19917;-37
2022/10/27 04:30:36;;;;;;;;;;;;;;;;;;5003806;28;20406;-38
2022/10/27 04:33:01;;;;;;;;;;;;;;;;;;5004536;28;19914;-38
2022/10/27 04:35:26;;;;;;;;;;;;;;;;;;5003572;28;19951;-37
2022/10/27 04:37:51;;;;;;;;;;;;;;;;;;5001908;28;19917;-38
2022/10/27 04:40:17;;;;;;;;;;;;;;;;;;5004648;28;20296;-37
2022/10/27 04:42:42;;;;;;;;;;;;;;;;;;5000817;28;19941;-37
2022/10/27 04:45:07;;;;;;;;;;;;;;;;;;5006524;28;19917;-38
2022/10/27 04:47:32;;;;;;;;;;;;;;;;;;5005757;28;19918;-38
2022/10/27 04:49:57;;;;;;;;;;;;;;;;;;5004203;28;19913;-38
2022/10/27 04:52:22;;;;;;;;;;;;;;;;;;5002184;28;19953;-37
2022/10/27 04:54:47;;;;;;;;;;;;;;;;;;5006424;28;19917;-37
2022/10/27 04:57:13;;;;;;;;;;;;;;;;;;5000865;28;19914;-38
2022/10/27 04:59:38;;;;;;;;;;;;;;;;;;5002278;28;19922;-38
2022/10/27 05:02:03;;;;;;;;;;;;;;;;;;5005178;28;20067;-38
2022/10/27 05:04:28;;;;;;;;;;;;;;;;;;5004472;28;19914;-38
2022/10/27 05:06:53;;;;;;;;;;;;;;;;;;5002083;28;19922;-37
2022/10/27 05:09:18;;;;;;;;;;;;;;;;;;5000809;28;19918;-37
2022/10/27 05:11:43;;;;;;;;;;;;;;;;;;5005027;28;20379;-38
2022/10/27 05:14:09;;;;;;;;;;;;;;;;;;5005520;28;20064;-37
2022/10/27 05:16:34;;;;;;;;;;;;;;;;;;5004189;28;19918;-37
2022/10/27 05:18:59;;;;;;;;;;;;;;;;;;5001248;28;19914;-37
2022/10/27 05:21:24;;;;;;;;;;;;;;;;;;5005356;28;20655;-37
2022/10/27 05:23:49;;;;;;;;;;;;;;;;;;5001066;28;19921;-37
2022/10/27 05:26:14;;;;;;;;;;;;;;;;;;5002006;28;20007;-37
2022/10/27 05:28:42;;;;;;;;;;;;;;;;;;5002428;28;19914;-37
2022/10/27 05:31:08;;;;;;;;;;;;;;;;;;5003452;28;19931;-37
2022/10/27 05:33:33;;;;;;;;;;;;;;;;;;5003988;28;19925;-37
2022/10/27 05:35:58;;;;;;;;;;;;;;;;;;5005108;28;20013;-38
2022/10/27 05:38:23;;;;;;;;;;;;;;;;;;5004795;28;19914;-37
2022/10/27 05:40:48;;;;;;;;;;;;;;;;;;5005538;28;19996;-37
2022/10/27 05:43:13;;;;;;;;;;;;;;;;;;5000757;28;19971;-37
2022/10/27 05:45:39;;;;;;;;;;;;;;;;;;5002771;28;19921;-37
2022/10/27 05:48:04;;;;;;;;;;;;;;;;;;5001633;28;20414;-38
2022/10/27 05:50:29;;;;;;;;;;;;;;;;;;5002524;28;20004;-37
2022/10/27 05:52:54;;;;;;;;;;;;;;;;;;5005174;28;19917;-38
2022/10/27 05:55:19;;;;;;;;;;;;;;;;;;5003264;28;19929;-38
2022/10/27 05:57:44;;;;;;;;;;;;;;;;;;4999442;28;20364;-38
2022/10/27 06:00:09;;;;;;;;;;;;;;;;;;5000776;28;19913;-38
2022/10/27 06:02:35;;;;;;;;;;;;;;;;;;5001921;28;19925;-37
2022/10/27 06:05:00;;;;;;;;;;;;;;;;;;5002584;28;19959;-37
2022/10/27 06:07:25;;;;;;;;;;;;;;;;;;5001612;28;20524;-38
2022/10/27 06:09:50;;;;;;;;;;;;;;;;;;5003312;28;19922;-37
2022/10/27 06:12:15;;;;;;;;;;;;;;;;;;5002937;28;19952;-37
2022/10/27 06:14:40;;;;;;;;;;;;;;;;;;5003665;28;19918;-38
2022/10/27 06:17:06;;;;;;;;;;;;;;;;;;5001818;28;20257;-38
2022/10/27 06:19:31;;;;;;;;;;;;;;;;;;5001322;28;19914;-37
2022/10/27 06:21:56;;;;;;;;;;;;;;;;;;5003869;28;19913;-38
2022/10/27 06:24:21;;;;;;;;;;;;;;;;;;4999808;28;19914;-38
2022/10/27 06:26:46;;;;;;;;;;;;;;;;;;5003269;28;19921;-37
2022/10/27 06:29:11;;;;;;;;;;;;;;;;;;4994466;28;19910;-38
2022/10/27 06:31:38;;;;;;;;;;;;;;;;;;5000163;28;19980;-37
2022/10/27 06:34:03;;;;;;;;;;;;;;;;;;4999830;28;19925;-38
2022/10/27 06:36:28;;;;;;;;;;;;;;;;;;5000045;28;19909;-37
2022/10/27 06:38:53;;;;;;;;;;;;;;;;;;5008360;28;19921;-37
2022/10/27 06:41:18;;;;;;;;;;;;;;;;;;5006395;28;19917;-37
2022/10/27 06:43:44;;;;;;;;;;;;;;;;;;5004899;28;19918;-37
2022/10/27 06:46:09;;;;;;;;;;;;;;;;;;5001904;28;19952;-38
2022/10/27 06:48:34;;;;;;;;;;;;;;;;;;5005558;28;20269;-37
2022/10/27 06:50:59;;;;;;;;;;;;;;;;;;4997443;28;19949;-37
2022/10/27 06:53:24;;;;;;;;;;;;;;;;;;5006131;28;20342;-38
2022/10/27 06:55:50;;;;;;;;;;;;;;;;;;5008149;28;19991;-37
2022/10/27 06:58:15;;;;;;;;;;;;;;;;;;5007900;28;19941;-37
2022/10/27 07:00:42;;;;;;;;;;;;;;;;;;4999524;28;20701;-37
2022/10/27 07:03:08;;;;;;;;;;;;;;;;;;5001308;28;20432;-37
2022/10/27 07:05:33;;;;;;;;;;;;;;;;;;5007776;28;19914;-37
2022/10/27 07:07:58;;;;;;;;;;;;;;;;;;5007468;28;19914;-38
2022/10/27 07:10:23;;;;;;;;;;;;;;;;;;5006762;28;19924;-38
2022/10/27 07:12:48;;;;;;;;;;;;;;;;;;5003317;28;20268;-37
2022/10/27 07:15:14;;;;;;;;;;;;;;;;;;5006658;28;19921;-38
2022/10/27 07:17:39;;;;;;;;;;;;;;;;;;5006916;28;19921;-38
2022/10/27 07:20:04;;;;;;;;;;;;;;;;;;5001850;28;19917;-38
2022/10/27 07:22:29;;;;;;;;;;;;;;;;;;5005075;28;19914;-37
2022/10/27 07:24:54;;;;;;;;;;;;;;;;;;5008389;28;19921;-38
2022/10/27 07:27:19;;;;;;;;;;;;;;;;;;5007202;28;20020;-38
2022/10/27 07:29:44;;;;;;;;;;;;;;;;;;5007024;28;19925;-38
2022/10/27 07:32:10;;;;;;;;;;;;;;;;;;5006966;28;20389;-38
2022/10/27 07:34:35;;;;;;;;;;;;;;;;;;5006113;28;19944;-38
2022/10/27 07:37:00;;;;;;;;;;;;;;;;;;5007806;28;19913;-38
2022/10/27 07:39:25;;;;;;;;;;;;;;;;;;5000375;28;20571;-38
2022/10/27 07:41:50;;;;;;;;;;;;;;;;;;4999955;28;19913;-38
2022/10/27 07:44:15;;;;;;;;;;;;;;;;;;5003035;28;19914;-38
2022/10/27 07:46:40;;;;;;;;;;;;;;;;;;5004492;28;19936;-38
2022/10/27 07:49:06;;;;;;;;;;;;;;;;;;5002688;28;19992;-38
2022/10/27 07:51:31;;;;;;;;;;;;;;;;;;5000410;28;20405;-38
2022/10/27 07:53:56;;;;;;;;;;;;;;;;;;5005867;28;20000;-38
2022/10/27 07:56:21;;;;;;;;;;;;;;;;;;5005581;28;19921;-38
2022/10/27 07:58:46;;;;;;;;;;;;;;;;;;5006775;28;19917;-37
2022/10/27 08:01:12;;;;;;;;;;;;;;;;;;5005702;28;20256;-38
2022/10/27 08:03:37;;;;;;;;;;;;;;;;;;5005033;28;19922;-38
2022/10/27 08:06:02;;;;;;;;;;;;;;;;;;5004061;28;19913;-38
2022/10/27 08:08:27;;;;;;;;;;;;;;;;;;5000388;28;19917;-38
2022/10/27 08:10:52;;;;;;;;;;;;;;;;;;5008174;28;19913;-38
2022/10/27 08:13:17;;;;;;;;;;;;;;;;;;5005350;28;19922;-38
2022/10/27 08:15:43;;;;;;;;;;;;;;;;;;5007975;28;20004;-38
2022/10/27 08:18:08;;;;;;;;;;;;;;;;;;5002126;28;20346;-38
2022/10/27 08:20:33;;;;;;;;;;;;;;;;;;5007274;28;19914;-38
2022/10/27 08:22:58;;;;;;;;;;;;;;;;;;5006971;28;19913;-38
2022/10/27 08:25:23;;;;;;;;;;;;;;;;;;5005844;28;20193;-38
2022/10/27 08:27:48;;;;;;;;;;;;;;;;;;5006467;28;19925;-38
2022/10/27 08:30:14;;;;;;;;;;;;;;;;;;5007008;28;19922;-38
2022/10/27 08:32:39;;;;;;;;;;;;;;;;;;5000663;28;20358;-38
2022/10/27 08:35:04;;;;;;;;;;;;;;;;;;5004047;28;19929;-38
2022/10/27 08:37:29;;;;;;;;;;;;;;;;;;5005881;28;19983;-39
2022/10/27 08:39:54;;;;;;;;;;;;;;;;;;5006314;28;19972;-39
2022/10/27 08:42:19;;;;;;;;;;;;;;;;;;5000111;28;19913;-39
2022/10/27 08:44:44;;;;;;;;;;;;;;;;;;5006017;28;20447;-38
2022/10/27 08:47:10;;;;;;;;;;;;;;;;;;5004060;28;19913;-39
2022/10/27 08:49:35;;;;;;;;;;;;;;;;;;5001844;28;19913;-39
2022/10/27 08:52:00;;;;;;;;;;;;;;;;;;5003491;28;19968;-38
2022/10/27 08:54:25;;;;;;;;;;;;;;;;;;5000451;28;19975;-38
2022/10/27 08:56:50;;;;;;;;;;;;;;;;;;5005185;28;19997;-38
2022/10/27 08:59:15;;;;;;;;;;;;;;;;;;5005388;28;19913;-38
2022/10/27 09:01:41;;;;;;;;;;;;;;;;;;4998906;28;19925;-38
2022/10/27 09:04:06;;;;;;;;;;;;;;;;;;5019692;28;19920;-39
2022/10/27 09:06:31;;;;;;;;;;;;;;;;;;5000834;28;19917;-38
2022/10/27 09:08:56;;;;;;;;;;;;;;;;;;4999835;28;19953;-39
2022/10/27 09:11:21;;;;;;;;;;;;;;;;;;5004145;28;19928;-38
2022/10/27 09:13:46;;;;;;;;;;;;;;;;;;5005489;28;20301;-38
2022/10/27 09:16:12;;;;;;;;;;;;;;;;;;5000758;28;19949;-38
2022/10/27 09:18:37;;;;;;;;;;;;;;;;;;5003757;28;20363;-38
2022/10/27 09:21:02;;;;;;;;;;;;;;;;;;5004731;28;19917;-38
2022/10/27 09:23:27;;;;;;;;;;;;;;;;;;4999995;28;19917;-38
2022/10/27 09:25:52;;;;;;;;;;;;;;;;;;5001522;28;20024;-38
2022/10/27 09:28:18;;;;;;;;;;;;;;;;;;5003695;28;19928;-38
2022/10/27 09:30:43;;;;;;;;;;;;;;;;;;5001033;28;20044;-38
2022/10/27 09:33:08;;;;;;;;;;;;;;;;;;5004815;28;19913;-38
2022/10/27 09:35:33;;;;;;;;;;;;;;;;;;5005289;28;20425;-38
2022/10/27 09:37:58;;;;;;;;;;;;;;;;;;5000397;28;19913;-38
2022/10/27 09:40:24;;;;;;;;;;;;;;;;;;4998134;28;19949;-38
2022/10/27 09:42:50;;;;;;;;;;;;;;;;;;5001842;28;19914;-38
2022/10/27 09:45:15;;;;;;;;;;;;;;;;;;5004286;28;20430;-38
2022/10/27 09:47:41;;;;;;;;;;;;;;;;;;5000391;28;19922;-38
2022/10/27 09:50:06;;;;;;;;;;;;;;;;;;5005984;28;19925;-38
2022/10/27 09:52:31;;;;;;;;;;;;;;;;;;4998274;28;19921;-39
2022/10/27 09:54:56;;;;;;;;;;;;;;;;;;5001444;28;19924;-38
2022/10/27 09:57:23;;;;;;;;;;;;;;;;;;5002552;28;19918;-38
2022/10/27 09:59:48;;;;;;;;;;;;;;;;;;4999957;28;20422;-39
2022/10/27 10:02:13;;;;;;;;;;;;;;;;;;4999980;28;19929;-38
2022/10/27 10:04:39;;;;;;;;;;;;;;;;;;5003152;28;19980;-38
2022/10/27 10:07:04;;;;;;;;;;;;;;;;;;5000089;28;19928;-38
2022/10/27 10:09:29;;;;;;;;;;;;;;;;;;5003315;28;19953;-38
2022/10/27 10:11:54;;;;;;;;;;;;;;;;;;4998930;28;19926;-39
2022/10/27 10:14:20;;;;;;;;;;;;;;;;;;5007038;28;19929;-39
2022/10/27 10:16:45;;;;;;;;;;;;;;;;;;5004987;28;19921;-38
2022/10/27 10:19:11;;;;;;;;;;;;;;;;;;5008325;28;20298;-38
2022/10/27 10:21:36;;;;;;;;;;;;;;;;;;5008386;28;19914;-39
2022/10/27 10:24:01;;;;;;;;;;;;;;;;;;5007658;28;19913;-38
2022/10/27 10:26:26;;;;;;;;;;;;;;;;;;5007361;28;19926;-38
2022/10/27 10:28:53;;;;;;;;;;;;;;;;;;5005175;28;19953;-39
2022/10/27 10:31:18;;;;;;;;;;;;;;;;;;5003133;28;21020;-39
2022/10/27 10:33:43;;;;;;;;;;;;;;;;;;5006229;28;19945;-39
2022/10/27 10:36:09;;;;;;;;;;;;;;;;;;5005917;28;20290;-39
2022/10/27 10:38:36;;;;;;;;;;;;;;;;;;5006651;28;19918;-39
2022/10/27 10:41:01;;;;;;;;;;;;;;;;;;5008634;28;19991;-39
2022/10/27 10:43:26;;;;;;;;;;;;;;;;;;5005282;28;20379;-39
2022/10/27 10:45:51;;;;;;;;;;;;;;;;;;5007656;28;19921;-39
2022/10/27 10:48:17;;;;;;;;;;;;;;;;;;5005743;28;20349;-39
2022/10/27 10:50:42;;;;;;;;;;;;;;;;;;5007007;28;19965;-38
2022/10/27 10:53:07;;;;;;;;;;;;;;;;;;5006042;28;19913;-39
2022/10/27 10:55:32;;;;;;;;;;;;;;;;;;5006472;28;19921;-39
2022/10/27 10:57:57;;;;;;;;;;;;;;;;;;5006704;28;19914;-39
2022/10/27 11:00:22;;;;;;;;;;;;;;;;;;5003406;28;19959;-39
2022/10/27 11:02:47;;;;;;;;;;;;;;;;;;5007174;28;20372;-39
2022/10/27 11:05:13;;;;;;;;;;;;;;;;;;5002243;28;19910;-39
2022/10/27 11:07:38;;;;;;;;;;;;;;;;;;5002040;28;20376;-39
2022/10/27 11:10:03;;;;;;;;;;;;;;;;;;5005577;28;19909;-39
2022/10/27 11:12:28;;;;;;;;;;;;;;;;;;5005917;28;19917;-39
2022/10/27 11:14:53;;;;;;;;;;;;;;;;;;5006834;28;20016;-39
2022/10/27 11:17:18;;;;;;;;;;;;;;;;;;5005550;28;19925;-36
2022/10/27 11:19:44;;;;;;;;;;;;;;;;;;5005845;28;19944;-36
2022/10/27 11:22:09;;;;;;;;;;;;;;;;;;5004111;28;19909;-36
2022/10/27 11:24:34;;;;;;;;;;;;;;;;;;5006378;28;19917;-36
2022/10/27 11:26:59;;;;;;;;;;;;;;;;;;5003539;28;19980;-36
2022/10/27 11:29:25;;;;;;;;;;;;;;;;;;5003458;28;19918;-36
2022/10/27 11:31:50;;;;;;;;;;;;;;;;;;5006039;28;19913;-36
2022/10/27 11:34:15;;;;;;;;;;;;;;;;;;5002426;28;19980;-36
2022/10/27 11:36:40;;;;;;;;;;;;;;;;;;5005448;28;19922;-37
2022/10/27 11:39:05;;;;;;;;;;;;;;;;;;5004281;28;20219;-37
2022/10/27 11:41:31;;;;;;;;;;;;;;;;;;5001469;28;20379;-36
2022/10/27 11:43:56;;;;;;;;;;;;;;;;;;5001046;28;19913;-39
2022/10/27 11:46:21;;;;;;;;;;;;;;;;;;5003011;28;19917;-38
2022/10/27 11:48:46;;;;;;;;;;;;;;;;;;5004220;28;20164;-39
2022/10/27 11:51:11;;;;;;;;;;;;;;;;;;4999164;28;19967;-39
2022/10/27 11:53:36;;;;;;;;;;;;;;;;;;5004527;28;19929;-39
2022/10/27 11:56:02;;;;;;;;;;;;;;;;;;5001878;28;19916;-39
2022/10/27 11:58:27;;;;;;;;;;;;;;;;;;5003456;28;20540;-37
2022/10/27 12:00:52;;;;;;;;;;;;;;;;;;5020325;22;21217;-33
2022/10/27 12:03:17;;;;;;;;;;;;;;;;;;5019226;28;20034;-34
2022/10/27 12:05:42;;;;;;;;;;;;;;;;;;5021516;28;19983;-35
2022/10/27 12:08:07;;;;;;;;;;;;;;;;;;5018565;28;20274;-35
2022/10/27 12:10:33;;;;;;;;;;;;;;;;;;5020480;28;20084;-34
2022/10/27 12:12:58;;;;;;;;;;;;;;;;;;5024428;28;19960;-35
2022/10/27 12:15:23;;;;;;;;;;;;;;;;;;5023438;28;20486;-35
2022/10/27 12:17:49;;;;;;;;;;;;;;;;;;5024213;28;20289;-34
2022/10/27 12:20:14;;;;;;;;;;;;;;;;;;5023084;28;19921;-35
2022/10/27 12:22:39;;;;;;;;;;;;;;;;;;5022294;28;19917;-34
2022/10/27 12:25:04;;;;;;;;;;;;;;;;;;5023428;28;19917;-35
2022/10/27 12:27:29;;;;;;;;;;;;;;;;;;5023429;28;20006;-35
2022/10/27 12:29:54;;;;;;;;;;;;;;;;;;5023741;28;19924;-35
2022/10/27 12:32:20;;;;;;;;;;;;;;;;;;5022782;28;19997;-35
2022/10/27 12:34:45;;;;;;;;;;;;;;;;;;5020474;28;19921;-35
2022/10/27 12:37:10;;;;;;;;;;;;;;;;;;5021566;28;19919;-35
2022/10/27 12:39:35;;;;;;;;;;;;;;;;;;5021977;28;19924;-35
2022/10/27 12:42:00;;;;;;;;;;;;;;;;;;5018892;28;20687;-35
2022/10/27 12:44:25;;;;;;;;;;;;;;;;;;5019426;28;20052;-34
2022/10/27 12:46:50;;;;;;;;;;;;;;;;;;5022159;28;19917;-34
2022/10/27 12:49:16;;;;;;;;;;;;;;;;;;5023020;28;19913;-35
2022/10/27 12:51:41;;;;;;;;;;;;;;;;;;5023432;28;20422;-35
2022/10/27 12:54:06;;;;;;;;;;;;;;;;;;5023809;28;20954;-35
2022/10/27 12:56:31;;;;;;;;;;;;;;;;;;5021775;28;19996;-35
2022/10/27 12:58:56;;;;;;;;;;;;;;;;;;5022886;28;20363;-35
2022/10/27 13:01:22;;;;;;;;;;;;;;;;;;5023417;28;19917;-35
2022/10/27 13:03:47;;;;;;;;;;;;;;;;;;5023580;28;19920;-35
2022/10/27 13:06:12;;;;;;;;;;;;;;;;;;5023437;28;19960;-35
2022/10/27 13:08:37;;;;;;;;;;;;;;;;;;5022938;28;19992;-35
2022/10/27 13:11:02;;;;;;;;;;;;;;;;;;5023277;28;19925;-35
2022/10/27 13:13:27;;;;;;;;;;;;;;;;;;5022973;28;20317;-35
2022/10/27 13:15:53;;;;;;;;;;;;;;;;;;5023040;28;20685;-34
2022/10/27 13:18:18;;;;;;;;;;;;;;;;;;5023044;28;19913;-35
2022/10/27 13:20:43;;;;;;;;;;;;;;;;;;5023323;28;19984;-35
2022/10/27 13:23:08;;;;;;;;;;;;;;;;;;5022674;28;20171;-35
2022/10/27 13:25:33;;;;;;;;;;;;;;;;;;5023386;28;19956;-35
2022/10/27 13:27:58;;;;;;;;;;;;;;;;;;5022698;28;19921;-35
2022/10/27 13:30:23;;;;;;;;;;;;;;;;;;5022761;28;20405;-35
2022/10/27 13:32:49;;;;;;;;;;;;;;;;;;5023426;28;20034;-35
2022/10/27 13:35:14;;;;;;;;;;;;;;;;;;5021869;28;20088;-35
2022/10/27 13:37:39;;;;;;;;;;;;;;;;;;5020076;28;20380;-35
2022/10/27 13:40:04;;;;;;;;;;;;;;;;;;5023714;28;19913;-35
2022/10/27 13:42:29;;;;;;;;;;;;;;;;;;5021343;28;19928;-34
2022/10/27 13:44:55;;;;;;;;;;;;;;;;;;5023544;28;20008;-35
2022/10/27 13:47:20;;;;;;;;;;;;;;;;;;5022133;28;20338;-35
2022/10/27 13:49:45;;;;;;;;;;;;;;;;;;5023120;28;19913;-35
2022/10/27 13:52:11;;;;;;;;;;;;;;;;;;5022854;28;19924;-35
2022/10/27 13:54:36;;;;;;;;;;;;;;;;;;5022019;28;19979;-35
2022/10/27 13:57:01;;;;;;;;;;;;;;;;;;5022207;28;19917;-35
2022/10/27 13:59:26;;;;;;;;;;;;;;;;;;5022277;28;19943;-35
2022/10/27 14:01:52;;;;;;;;;;;;;;;;;;5022901;28;19971;-35
2022/10/27 14:04:17;;;;;;;;;;;;;;;;;;5022333;28;19921;-35
2022/10/27 14:06:42;;;;;;;;;;;;;;;;;;5022975;28;19917;-35
2022/10/27 14:09:07;;;;;;;;;;;;;;;;;;5023220;28;19929;-35
2022/10/27 14:11:32;;;;;;;;;;;;;;;;;;5018937;28;19935;-35
2022/10/27 14:13:58;;;;;;;;;;;;;;;;;;5016064;28;19921;-35
2022/10/27 14:16:23;;;;;;;;;;;;;;;;;;5021148;28;19917;-35
2022/10/27 14:18:48;;;;;;;;;;;;;;;;;;5022697;28;19917;-35
2022/10/27 14:21:13;;;;;;;;;;;;;;;;;;5017734;28;20015;-35
2022/10/27 14:23:38;;;;;;;;;;;;;;;;;;5021525;28;19917;-34
2022/10/27 14:26:03;;;;;;;;;;;;;;;;;;5023560;28;19913;-35
2022/10/27 14:28:28;;;;;;;;;;;;;;;;;;5022245;28;20398;-35
2022/10/27 14:30:54;;;;;;;;;;;;;;;;;;5021481;28;20135;-35
2022/10/27 14:33:19;;;;;;;;;;;;;;;;;;5021233;28;19923;-35
2022/10/27 14:35:44;;;;;;;;;;;;;;;;;;5021641;28;20456;-35
2022/10/27 14:38:09;;;;;;;;;;;;;;;;;;5018811;28;19921;-35
2022/10/27 14:40:34;;;;;;;;;;;;;;;;;;5022685;28;20424;-35
2022/10/27 14:42:59;;;;;;;;;;;;;;;;;;5021208;28;20049;-35
2022/10/27 14:45:24;;;;;;;;;;;;;;;;;;5021239;28;19912;-35
2022/10/27 14:47:50;;;;;;;;;;;;;;;;;;5022458;28;19952;-35
2022/10/27 14:50:15;;;;;;;;;;;;;;;;;;5021649;28;20433;-35
2022/10/27 14:52:40;;;;;;;;;;;;;;;;;;5022834;28;19917;-35
2022/10/27 14:55:05;;;;;;;;;;;;;;;;;;5022360;28;20295;-34
2022/10/27 14:57:30;;;;;;;;;;;;;;;;;;5021201;28;19921;-35
2022/10/27 14:59:55;;;;;;;;;;;;;;;;;;5025503;28;20365;-35
2022/10/27 15:02:20;;;;;;;;;;;;;;;;;;5025087;28;19925;-35
2022/10/27 15:04:46;;;;;;;;;;;;;;;;;;5025817;28;19921;-35
2022/10/27 15:07:11;;;;;;;;;;;;;;;;;;5025476;28;20019;-35
2022/10/27 15:09:36;;;;;;;;;;;;;;;;;;5025126;28;19971;-35
2022/10/27 15:12:01;;;;;;;;;;;;;;;;;;5026314;28;19917;-35
2022/10/27 15:14:27;;;;;;;;;;;;;;;;;;5025122;28;19925;-35
2022/10/27 15:16:54;;;;;;;;;;;;;;;;;;5026318;28;19913;-35
2022/10/27 15:19:19;;;;;;;;;;;;;;;;;;5025045;28;19940;-35
2022/10/27 15:21:45;;;;;;;;;;;;;;;;;;5025867;28;19956;-35
2022/10/27 15:24:10;;;;;;;;;;;;;;;;;;5025133;28;20256;-35
2022/10/27 15:26:35;;;;;;;;;;;;;;;;;;5025709;28;20638;-35
2022/10/27 15:29:02;;;;;;;;;;;;;;;;;;5026332;28;20274;-35
2022/10/27 15:31:28;;;;;;;;;;;;;;;;;;5024395;28;19921;-35
2022/10/27 15:33:53;;;;;;;;;;;;;;;;;;5023741;28;20283;-35
2022/10/27 15:36:18;;;;;;;;;;;;;;;;;;5025087;28;19959;-35
2022/10/27 15:38:43;;;;;;;;;;;;;;;;;;5023281;28;20409;-35
2022/10/27 15:41:10;;;;;;;;;;;;;;;;;;5023038;28;19913;-35
2022/10/27 15:43:35;;;;;;;;;;;;;;;;;;5021269;28;19944;-35
2022/10/27 15:46:00;;;;;;;;;;;;;;;;;;5026739;28;19943;-35
2022/10/27 15:48:25;;;;;;;;;;;;;;;;;;5026123;28;19927;-34
2022/10/27 15:50:50;;;;;;;;;;;;;;;;;;5026195;28;19913;-35
2022/10/27 15:53:15;;;;;;;;;;;;;;;;;;5024581;28;19917;-35
2022/10/27 15:55:40;;;;;;;;;;;;;;;;;;5025823;28;20346;-35
2022/10/27 15:58:06;;;;;;;;;;;;;;;;;;5023849;28;20001;-35
2022/10/27 16:00:31;;;;;;;;;;;;;;;;;;5023499;28;19959;-35
2022/10/27 16:02:58;;;;;;;;;;;;;;;;;;5027013;28;19928;-34
2022/10/27 16:05:23;;;;;;;;;;;;;;;;;;5026261;28;19920;-35
2022/10/27 16:07:48;;;;;;;;;;;;;;;;;;5026254;28;19917;-35
2022/10/27 16:10:14;;;;;;;;;;;;;;;;;;5026417;28;19924;-35
2022/10/27 16:12:39;;;;;;;;;;;;;;;;;;5025737;28;20017;-35
2022/10/27 16:15:04;;;;;;;;;;;;;;;;;;5026875;28;19917;-35
2022/10/27 16:17:30;;;;;;;;;;;;;;;;;;5025936;28;19936;-35
2022/10/27 16:19:56;;;;;;;;;;;;;;;;;;5026789;28;19956;-35
2022/10/27 16:22:21;;;;;;;;;;;;;;;;;;5026490;28;19953;-35
2022/10/27 16:24:46;;;;;;;;;;;;;;;;;;5025768;28;20457;-35
2022/10/27 16:27:11;;;;;;;;;;;;;;;;;;5027244;28;19913;-35
2022/10/27 16:29:36;;;;;;;;;;;;;;;;;;5025192;28;20522;-35
2022/10/27 16:32:01;;;;;;;;;;;;;;;;;;5026458;28;19920;-35